sensor_id;sensor_type;location;lat;lon;timestamp;P1;durP1;ratioP1;P2;durP2;ratioP2
7017;SDS011;3549;42.162;24.726;2023-08-17T05:32:48;14.10;;;8.70;;
7017;SDS011;3549;42.162;24.726;2023-08-17T05:35:13;13.43;;;8.80;;
7017;SDS011;3549;42.162;24.726;2023-08-17T05:37:39;18.50;;;9.10;;
7017;SDS011;3549;42.162;24.726;2023-08-17T05:40:11;16.13;;;9.20;;
7017;SDS011;3549;42.162;24.726;2023-08-17T05:42:36;13.10;;;8.60;;
7017;SDS011;3549;42.162;24.726;2023-08-17T05:45:02;15.07;;;8.67;;
7017;SDS011;3549;42.162;24.726;2023-08-17T05:47:28;17.87;;;8.40;;
7017;SDS011;3549;42.162;24.726;2023-08-17T05:49:53;13.17;;;7.80;;
7017;SDS011;3549;42.162;24.726;2023-08-17T05:52:18;14.67;;;7.30;;
7017;SDS011;3549;42.162;24.726;2023-08-17T05:54:44;12.80;;;7.67;;
7017;SDS011;3549;42.162;24.726;2023-08-17T05:57:09;10.00;;;7.13;;
7017;SDS011;3549;42.162;24.726;2023-08-17T05:59:35;14.53;;;7.93;;
7017;SDS011;3549;42.162;24.726;2023-08-17T06:02:01;12.93;;;7.07;;
7017;SDS011;3549;42.162;24.726;2023-08-17T06:04:26;13.67;;;7.43;;
7017;SDS011;3549;42.162;24.726;2023-08-17T06:06:51;11.80;;;7.27;;
7017;SDS011;3549;42.162;24.726;2023-08-17T06:09:17;10.23;;;6.93;;
7017;SDS011;3549;42.162;24.726;2023-08-17T06:11:42;11.20;;;7.27;;
7017;SDS011;3549;42.162;24.726;2023-08-17T06:14:08;11.60;;;7.20;;
7017;SDS011;3549;42.162;24.726;2023-08-17T06:16:33;11.80;;;7.30;;
7017;SDS011;3549;42.162;24.726;2023-08-17T06:18:59;15.33;;;7.67;;
7017;SDS011;3549;42.162;24.726;2023-08-17T06:21:24;12.73;;;7.93;;
7017;SDS011;3549;42.162;24.726;2023-08-17T06:23:50;10.50;;;6.73;;
7017;SDS011;3549;42.162;24.726;2023-08-17T06:26:15;12.27;;;6.87;;
7017;SDS011;3549;42.162;24.726;2023-08-17T06:28:41;12.13;;;6.80;;
7017;SDS011;3549;42.162;24.726;2023-08-17T06:31:06;12.10;;;7.00;;
7017;SDS011;3549;42.162;24.726;2023-08-17T06:33:32;15.33;;;7.07;;
7017;SDS011;3549;42.162;24.726;2023-08-17T06:35:57;8.20;;;6.67;;
7017;SDS011;3549;42.162;24.726;2023-08-17T06:38:22;9.93;;;6.63;;
7017;SDS011;3549;42.162;24.726;2023-08-17T06:40:48;9.93;;;7.07;;
7017;SDS011;3549;42.162;24.726;2023-08-17T06:43:13;12.00;;;6.70;;
7017;SDS011;3549;42.162;24.726;2023-08-17T06:45:39;11.02;;;6.75;;
7017;SDS011;3549;42.162;24.726;2023-08-17T06:48:04;11.45;;;6.90;;
7017;SDS011;3549;42.162;24.726;2023-08-17T06:50:30;9.55;;;6.93;;
7017;SDS011;3549;42.162;24.726;2023-08-17T06:52:56;10.82;;;7.25;;
7017;SDS011;3549;42.162;24.726;2023-08-17T06:55:21;10.35;;;7.13;;
7017;SDS011;3549;42.162;24.726;2023-08-17T06:57:47;13.80;;;7.22;;
7017;SDS011;3549;42.162;24.726;2023-08-17T07:00:14;11.98;;;7.30;;
7017;SDS011;3549;42.162;24.726;2023-08-17T07:02:40;9.45;;;6.47;;
7017;SDS011;3549;42.162;24.726;2023-08-17T07:05:06;7.03;;;5.95;;
7017;SDS011;3549;42.162;24.726;2023-08-17T07:07:31;8.98;;;6.70;;
7017;SDS011;3549;42.162;24.726;2023-08-17T07:10:00;8.00;;;6.00;;
7017;SDS011;3549;42.162;24.726;2023-08-17T07:12:26;13.80;;;6.63;;
7017;SDS011;3549;42.162;24.726;2023-08-17T07:14:53;9.15;;;6.57;;
7017;SDS011;3549;42.162;24.726;2023-08-17T07:17:18;8.15;;;6.35;;
7017;SDS011;3549;42.162;24.726;2023-08-17T07:19:44;6.65;;;5.95;;
7017;SDS011;3549;42.162;24.726;2023-08-17T07:22:09;10.77;;;6.43;;
7017;SDS011;3549;42.162;24.726;2023-08-17T07:24:35;11.23;;;6.40;;
7017;SDS011;3549;42.162;24.726;2023-08-17T07:27:00;8.38;;;6.63;;
7017;SDS011;3549;42.162;24.726;2023-08-17T07:29:25;9.13;;;6.53;;
7017;SDS011;3549;42.162;24.726;2023-08-17T07:31:51;10.68;;;6.03;;
7017;SDS011;3549;42.162;24.726;2023-08-17T07:34:16;8.57;;;5.70;;
7017;SDS011;3549;42.162;24.726;2023-08-17T07:36:42;9.57;;;6.00;;
7017;SDS011;3549;42.162;24.726;2023-08-17T07:39:07;9.15;;;5.70;;
7017;SDS011;3549;42.162;24.726;2023-08-17T07:41:33;13.13;;;6.15;;
7017;SDS011;3549;42.162;24.726;2023-08-17T07:43:58;5.95;;;5.35;;
7017;SDS011;3549;42.162;24.726;2023-08-17T07:46:24;9.35;;;6.40;;
7017;SDS011;3549;42.162;24.726;2023-08-17T07:48:49;8.63;;;6.47;;
7017;SDS011;3549;42.162;24.726;2023-08-17T07:51:15;12.10;;;7.13;;
7017;SDS011;3549;42.162;24.726;2023-08-17T07:53:40;8.48;;;5.20;;
7017;SDS011;3549;42.162;24.726;2023-08-17T07:56:06;7.55;;;5.80;;
7017;SDS011;3549;42.162;24.726;2023-08-17T07:58:31;6.40;;;4.80;;
7017;SDS011;3549;42.162;24.726;2023-08-17T08:00:57;7.20;;;5.22;;
7017;SDS011;3549;42.162;24.726;2023-08-17T08:03:22;9.00;;;5.30;;
7017;SDS011;3549;42.162;24.726;2023-08-17T08:05:48;6.72;;;5.10;;
7017;SDS011;3549;42.162;24.726;2023-08-17T08:08:13;8.73;;;5.00;;
7017;SDS011;3549;42.162;24.726;2023-08-17T08:10:40;8.25;;;5.18;;
7017;SDS011;3549;42.162;24.726;2023-08-17T08:13:05;6.57;;;5.20;;
7017;SDS011;3549;42.162;24.726;2023-08-17T08:15:31;5.45;;;4.95;;
7017;SDS011;3549;42.162;24.726;2023-08-17T08:17:58;7.60;;;5.03;;
7017;SDS011;3549;42.162;24.726;2023-08-17T08:20:23;9.13;;;4.72;;
7017;SDS011;3549;42.162;24.726;2023-08-17T08:22:49;10.85;;;4.47;;
7017;SDS011;3549;42.162;24.726;2023-08-17T08:25:14;8.23;;;4.30;;
7017;SDS011;3549;42.162;24.726;2023-08-17T08:27:40;10.45;;;4.68;;
7017;SDS011;3549;42.162;24.726;2023-08-17T08:30:06;6.13;;;4.40;;
7017;SDS011;3549;42.162;24.726;2023-08-17T08:32:32;6.82;;;4.43;;
7017;SDS011;3549;42.162;24.726;2023-08-17T08:34:57;6.45;;;5.00;;
7017;SDS011;3549;42.162;24.726;2023-08-17T08:37:23;5.68;;;4.28;;
7017;SDS011;3549;42.162;24.726;2023-08-17T08:39:49;5.43;;;4.30;;
7017;SDS011;3549;42.162;24.726;2023-08-17T08:42:18;8.52;;;4.63;;
7017;SDS011;3549;42.162;24.726;2023-08-17T08:44:45;10.98;;;4.72;;
7017;SDS011;3549;42.162;24.726;2023-08-17T08:47:11;7.47;;;4.38;;
7017;SDS011;3549;42.162;24.726;2023-08-17T08:49:42;11.25;;;5.50;;
7017;SDS011;3549;42.162;24.726;2023-08-17T08:52:17;8.30;;;6.00;;
7017;SDS011;3549;42.162;24.726;2023-08-17T08:54:48;9.98;;;4.85;;
7017;SDS011;3549;42.162;24.726;2023-08-17T08:57:15;8.30;;;4.53;;
7017;SDS011;3549;42.162;24.726;2023-08-17T08:59:42;9.07;;;4.72;;
7017;SDS011;3549;42.162;24.726;2023-08-17T09:02:14;8.90;;;4.22;;
7017;SDS011;3549;42.162;24.726;2023-08-17T09:04:44;7.13;;;4.53;;
7017;SDS011;3549;42.162;24.726;2023-08-17T09:07:10;5.47;;;4.00;;
7017;SDS011;3549;42.162;24.726;2023-08-17T09:09:37;7.30;;;4.40;;
7017;SDS011;3549;42.162;24.726;2023-08-17T09:12:03;9.27;;;4.45;;
7017;SDS011;3549;42.162;24.726;2023-08-17T09:14:32;5.85;;;4.20;;
7017;SDS011;3549;42.162;24.726;2023-08-17T09:16:57;9.15;;;4.50;;
7017;SDS011;3549;42.162;24.726;2023-08-17T09:19:23;6.45;;;4.60;;
7017;SDS011;3549;42.162;24.726;2023-08-17T09:21:49;7.38;;;4.50;;
7017;SDS011;3549;42.162;24.726;2023-08-17T09:24:15;5.75;;;5.10;;
7017;SDS011;3549;42.162;24.726;2023-08-17T09:26:40;6.97;;;5.00;;
7017;SDS011;3549;42.162;24.726;2023-08-17T09:29:18;9.38;;;5.82;;
7017;SDS011;3549;42.162;24.726;2023-08-17T09:31:45;7.55;;;4.95;;
7017;SDS011;3549;42.162;24.726;2023-08-17T09:34:11;7.28;;;5.30;;
7017;SDS011;3549;42.162;24.726;2023-08-17T09:36:39;5.90;;;5.18;;
7017;SDS011;3549;42.162;24.726;2023-08-17T09:39:05;9.48;;;5.57;;
7017;SDS011;3549;42.162;24.726;2023-08-17T09:41:30;9.75;;;4.60;;
7017;SDS011;3549;42.162;24.726;2023-08-17T09:44:02;8.60;;;4.65;;
7017;SDS011;3549;42.162;24.726;2023-08-17T09:46:29;5.18;;;4.50;;
7017;SDS011;3549;42.162;24.726;2023-08-17T09:48:54;8.63;;;4.50;;
7017;SDS011;3549;42.162;24.726;2023-08-17T09:51:20;10.15;;;4.53;;
7017;SDS011;3549;42.162;24.726;2023-08-17T09:53:51;9.52;;;4.60;;
7017;SDS011;3549;42.162;24.726;2023-08-17T09:56:17;7.38;;;4.53;;
7017;SDS011;3549;42.162;24.726;2023-08-17T09:58:46;7.72;;;4.53;;
7017;SDS011;3549;42.162;24.726;2023-08-17T10:01:12;7.95;;;4.25;;
7017;SDS011;3549;42.162;24.726;2023-08-17T10:03:39;11.88;;;5.22;;
7017;SDS011;3549;42.162;24.726;2023-08-17T10:06:09;9.27;;;4.22;;
7017;SDS011;3549;42.162;24.726;2023-08-17T10:08:39;8.32;;;4.38;;
7017;SDS011;3549;42.162;24.726;2023-08-17T10:11:08;7.03;;;4.40;;
7017;SDS011;3549;42.162;24.726;2023-08-17T10:13:35;6.53;;;4.68;;
7017;SDS011;3549;42.162;24.726;2023-08-17T10:16:16;7.15;;;4.85;;
7017;SDS011;3549;42.162;24.726;2023-08-17T10:18:56;11.10;;;4.57;;
7017;SDS011;3549;42.162;24.726;2023-08-17T10:21:32;5.75;;;4.47;;
7017;SDS011;3549;42.162;24.726;2023-08-17T10:24:09;6.57;;;4.45;;
7017;SDS011;3549;42.162;24.726;2023-08-17T10:26:36;10.60;;;4.22;;
7017;SDS011;3549;42.162;24.726;2023-08-17T10:29:01;5.82;;;4.05;;
7017;SDS011;3549;42.162;24.726;2023-08-17T10:31:28;5.38;;;3.78;;
7017;SDS011;3549;42.162;24.726;2023-08-17T10:33:54;4.63;;;3.97;;
7017;SDS011;3549;42.162;24.726;2023-08-17T10:36:22;7.63;;;4.00;;
7017;SDS011;3549;42.162;24.726;2023-08-17T10:38:48;6.40;;;4.05;;
7017;SDS011;3549;42.162;24.726;2023-08-17T10:41:50;8.55;;;4.20;;
7017;SDS011;3549;42.162;24.726;2023-08-17T10:44:18;4.30;;;3.90;;
7017;SDS011;3549;42.162;24.726;2023-08-17T10:49:56;6.13;;;3.80;;
7017;SDS011;3549;42.162;24.726;2023-08-17T10:52:33;6.95;;;3.88;;
7017;SDS011;3549;42.162;24.726;2023-08-17T10:55:04;6.57;;;3.80;;
7017;SDS011;3549;42.162;24.726;2023-08-17T11:00:16;4.15;;;3.75;;
7017;SDS011;3549;42.162;24.726;2023-08-17T11:02:53;6.85;;;4.18;;
7017;SDS011;3549;42.162;24.726;2023-08-17T11:05:35;4.93;;;3.60;;
7017;SDS011;3549;42.162;24.726;2023-08-17T11:08:04;6.15;;;3.65;;
7017;SDS011;3549;42.162;24.726;2023-08-17T11:10:30;6.75;;;3.85;;
7017;SDS011;3549;42.162;24.726;2023-08-17T11:12:56;11.27;;;3.78;;
7017;SDS011;3549;42.162;24.726;2023-08-17T11:15:34;4.30;;;3.90;;
7017;SDS011;3549;42.162;24.726;2023-08-17T11:18:02;7.15;;;4.10;;
7017;SDS011;3549;42.162;24.726;2023-08-17T11:20:29;5.47;;;3.60;;
7017;SDS011;3549;42.162;24.726;2023-08-17T11:22:54;9.32;;;3.83;;
7017;SDS011;3549;42.162;24.726;2023-08-17T11:25:19;6.00;;;3.90;;
7017;SDS011;3549;42.162;24.726;2023-08-17T11:27:45;4.82;;;3.80;;
7017;SDS011;3549;42.162;24.726;2023-08-17T11:30:12;6.68;;;3.67;;
7017;SDS011;3549;42.162;24.726;2023-08-17T11:32:37;6.07;;;4.10;;
7017;SDS011;3549;42.162;24.726;2023-08-17T11:35:03;6.43;;;3.75;;
7017;SDS011;3549;42.162;24.726;2023-08-17T11:37:28;9.63;;;4.28;;
7017;SDS011;3549;42.162;24.726;2023-08-17T11:39:54;5.38;;;3.50;;
7017;SDS011;3549;42.162;24.726;2023-08-17T11:42:19;5.28;;;3.58;;
7017;SDS011;3549;42.162;24.726;2023-08-17T11:44:45;5.05;;;3.55;;
7017;SDS011;3549;42.162;24.726;2023-08-17T11:47:10;7.97;;;3.90;;
7017;SDS011;3549;42.162;24.726;2023-08-17T11:49:36;5.97;;;3.65;;
7017;SDS011;3549;42.162;24.726;2023-08-17T11:52:02;4.15;;;3.45;;
7017;SDS011;3549;42.162;24.726;2023-08-17T11:54:27;5.65;;;3.42;;
7017;SDS011;3549;42.162;24.726;2023-08-17T11:56:53;4.50;;;4.07;;
7017;SDS011;3549;42.162;24.726;2023-08-17T11:59:18;3.88;;;3.58;;
7017;SDS011;3549;42.162;24.726;2023-08-17T12:01:44;3.60;;;3.30;;
7017;SDS011;3549;42.162;24.726;2023-08-17T12:04:10;5.32;;;3.78;;
7017;SDS011;3549;42.162;24.726;2023-08-17T12:06:41;5.57;;;3.60;;
7017;SDS011;3549;42.162;24.726;2023-08-17T12:09:09;5.50;;;3.65;;
7017;SDS011;3549;42.162;24.726;2023-08-17T12:11:34;6.43;;;3.40;;
7017;SDS011;3549;42.162;24.726;2023-08-17T12:14:01;5.88;;;3.55;;
7017;SDS011;3549;42.162;24.726;2023-08-17T12:16:34;4.35;;;3.67;;
7017;SDS011;3549;42.162;24.726;2023-08-17T12:18:59;4.53;;;3.60;;
7017;SDS011;3549;42.162;24.726;2023-08-17T12:21:25;6.90;;;3.55;;
7017;SDS011;3549;42.162;24.726;2023-08-17T12:23:51;7.30;;;3.53;;
7017;SDS011;3549;42.162;24.726;2023-08-17T12:26:22;7.10;;;3.28;;
7017;SDS011;3549;42.162;24.726;2023-08-17T12:28:51;5.10;;;3.35;;
7017;SDS011;3549;42.162;24.726;2023-08-17T12:31:21;5.65;;;3.13;;
7017;SDS011;3549;42.162;24.726;2023-08-17T12:33:47;10.55;;;3.80;;
7017;SDS011;3549;42.162;24.726;2023-08-17T12:36:13;4.88;;;3.33;;
7017;SDS011;3549;42.162;24.726;2023-08-17T12:38:38;7.40;;;3.50;;
7017;SDS011;3549;42.162;24.726;2023-08-17T12:41:09;7.53;;;3.58;;
7017;SDS011;3549;42.162;24.726;2023-08-17T12:43:35;5.85;;;3.80;;
7017;SDS011;3549;42.162;24.726;2023-08-17T12:46:00;8.05;;;3.85;;
7017;SDS011;3549;42.162;24.726;2023-08-17T12:48:26;4.85;;;3.70;;
7017;SDS011;3549;42.162;24.726;2023-08-17T12:50:51;5.43;;;3.40;;
7017;SDS011;3549;42.162;24.726;2023-08-17T12:53:16;5.47;;;3.42;;
7017;SDS011;3549;42.162;24.726;2023-08-17T12:55:42;3.40;;;3.10;;
7017;SDS011;3549;42.162;24.726;2023-08-17T12:58:08;4.30;;;3.45;;
7017;SDS011;3549;42.162;24.726;2023-08-17T13:00:34;6.60;;;3.60;;
7017;SDS011;3549;42.162;24.726;2023-08-17T13:03:00;8.15;;;5.10;;
7017;SDS011;3549;42.162;24.726;2023-08-17T13:05:25;9.82;;;4.28;;
7017;SDS011;3549;42.162;24.726;2023-08-17T13:07:51;7.78;;;4.15;;
7017;SDS011;3549;42.162;24.726;2023-08-17T13:10:16;4.05;;;3.65;;
7017;SDS011;3549;42.162;24.726;2023-08-17T13:12:42;5.53;;;3.65;;
7017;SDS011;3549;42.162;24.726;2023-08-17T13:15:07;6.65;;;3.45;;
7017;SDS011;3549;42.162;24.726;2023-08-17T13:17:33;5.78;;;3.50;;
7017;SDS011;3549;42.162;24.726;2023-08-17T13:19:58;5.07;;;3.50;;
7017;SDS011;3549;42.162;24.726;2023-08-17T13:22:23;6.03;;;4.00;;
7017;SDS011;3549;42.162;24.726;2023-08-17T13:24:49;5.38;;;3.88;;
7017;SDS011;3549;42.162;24.726;2023-08-17T13:27:14;6.20;;;3.80;;
7017;SDS011;3549;42.162;24.726;2023-08-17T13:29:39;5.85;;;3.70;;
7017;SDS011;3549;42.162;24.726;2023-08-17T13:32:05;7.15;;;3.92;;
7017;SDS011;3549;42.162;24.726;2023-08-17T13:34:30;6.45;;;3.65;;
7017;SDS011;3549;42.162;24.726;2023-08-17T13:36:56;5.43;;;3.80;;
7017;SDS011;3549;42.162;24.726;2023-08-17T13:39:21;9.55;;;4.45;;
7017;SDS011;3549;42.162;24.726;2023-08-17T13:41:47;7.90;;;4.00;;
7017;SDS011;3549;42.162;24.726;2023-08-17T13:44:12;5.28;;;3.78;;
7017;SDS011;3549;42.162;24.726;2023-08-17T13:46:37;5.85;;;3.70;;
7017;SDS011;3549;42.162;24.726;2023-08-17T13:49:03;6.60;;;3.83;;
7017;SDS011;3549;42.162;24.726;2023-08-17T13:51:29;5.75;;;4.43;;
7017;SDS011;3549;42.162;24.726;2023-08-17T13:53:55;8.95;;;4.13;;
7017;SDS011;3549;42.162;24.726;2023-08-17T13:56:20;6.90;;;4.22;;
7017;SDS011;3549;42.162;24.726;2023-08-17T13:58:45;7.07;;;4.20;;
7017;SDS011;3549;42.162;24.726;2023-08-17T14:01:11;4.68;;;3.90;;
7017;SDS011;3549;42.162;24.726;2023-08-17T14:03:36;4.85;;;4.00;;
7017;SDS011;3549;42.162;24.726;2023-08-17T14:06:02;5.00;;;3.72;;
7017;SDS011;3549;42.162;24.726;2023-08-17T14:08:28;5.82;;;5.10;;
7017;SDS011;3549;42.162;24.726;2023-08-17T14:10:53;5.05;;;3.88;;
7017;SDS011;3549;42.162;24.726;2023-08-17T14:13:18;5.95;;;4.00;;
7017;SDS011;3549;42.162;24.726;2023-08-17T14:15:44;7.88;;;4.03;;
7017;SDS011;3549;42.162;24.726;2023-08-17T14:18:09;6.43;;;4.10;;
7017;SDS011;3549;42.162;24.726;2023-08-17T14:20:35;6.78;;;4.07;;
7017;SDS011;3549;42.162;24.726;2023-08-17T14:23:00;7.97;;;4.32;;
7017;SDS011;3549;42.162;24.726;2023-08-17T14:25:25;9.00;;;4.05;;
7017;SDS011;3549;42.162;24.726;2023-08-17T14:27:51;7.07;;;4.18;;
7017;SDS011;3549;42.162;24.726;2023-08-17T14:30:16;5.38;;;3.92;;
7017;SDS011;3549;42.162;24.726;2023-08-17T14:32:42;7.85;;;4.30;;
7017;SDS011;3549;42.162;24.726;2023-08-17T14:35:07;5.60;;;4.25;;
7017;SDS011;3549;42.162;24.726;2023-08-17T14:37:33;6.13;;;4.28;;
7017;SDS011;3549;42.162;24.726;2023-08-17T14:39:59;7.32;;;4.15;;
7017;SDS011;3549;42.162;24.726;2023-08-17T14:42:24;6.75;;;3.97;;
7017;SDS011;3549;42.162;24.726;2023-08-17T14:44:50;9.07;;;3.95;;
7017;SDS011;3549;42.162;24.726;2023-08-17T14:47:16;5.35;;;4.30;;
7017;SDS011;3549;42.162;24.726;2023-08-17T14:49:42;6.15;;;4.55;;
7017;SDS011;3549;42.162;24.726;2023-08-17T14:52:07;6.65;;;3.90;;
7017;SDS011;3549;42.162;24.726;2023-08-17T14:54:33;5.43;;;3.88;;
7017;SDS011;3549;42.162;24.726;2023-08-17T14:56:58;7.65;;;4.05;;
7017;SDS011;3549;42.162;24.726;2023-08-17T14:59:24;5.07;;;3.88;;
7017;SDS011;3549;42.162;24.726;2023-08-17T15:01:49;7.28;;;4.32;;
7017;SDS011;3549;42.162;24.726;2023-08-17T15:04:17;6.60;;;4.05;;
7017;SDS011;3549;42.162;24.726;2023-08-17T15:06:42;5.97;;;4.40;;
7017;SDS011;3549;42.162;24.726;2023-08-17T15:09:08;4.90;;;4.40;;
7017;SDS011;3549;42.162;24.726;2023-08-17T15:11:35;6.85;;;4.35;;
7017;SDS011;3549;42.162;24.726;2023-08-17T15:14:00;10.80;;;4.57;;
7017;SDS011;3549;42.162;24.726;2023-08-17T15:16:26;7.53;;;4.63;;
7017;SDS011;3549;42.162;24.726;2023-08-17T15:18:52;7.55;;;5.13;;
7017;SDS011;3549;42.162;24.726;2023-08-17T15:21:18;6.38;;;4.70;;
7017;SDS011;3549;42.162;24.726;2023-08-17T15:23:44;6.38;;;4.70;;
7017;SDS011;3549;42.162;24.726;2023-08-17T15:26:09;5.88;;;4.97;;
7017;SDS011;3549;42.162;24.726;2023-08-17T15:28:35;9.20;;;5.38;;
7017;SDS011;3549;42.162;24.726;2023-08-17T15:31:02;6.65;;;4.70;;
7017;SDS011;3549;42.162;24.726;2023-08-17T15:33:30;8.68;;;4.88;;
7017;SDS011;3549;42.162;24.726;2023-08-17T15:35:56;10.30;;;4.95;;
7017;SDS011;3549;42.162;24.726;2023-08-17T15:38:22;7.15;;;5.10;;
7017;SDS011;3549;42.162;24.726;2023-08-17T15:40:49;9.50;;;5.30;;
7017;SDS011;3549;42.162;24.726;2023-08-17T15:43:15;8.20;;;5.32;;
7017;SDS011;3549;42.162;24.726;2023-08-17T15:45:40;6.28;;;4.82;;
7017;SDS011;3549;42.162;24.726;2023-08-17T15:48:07;7.35;;;5.63;;
7017;SDS011;3549;42.162;24.726;2023-08-17T15:50:32;6.75;;;5.50;;
7017;SDS011;3549;42.162;24.726;2023-08-17T15:52:58;9.20;;;5.35;;
7017;SDS011;3549;42.162;24.726;2023-08-17T15:55:23;10.43;;;6.05;;
7017;SDS011;3549;42.162;24.726;2023-08-17T15:57:48;10.13;;;6.00;;
7017;SDS011;3549;42.162;24.726;2023-08-17T16:00:14;9.85;;;6.05;;
7017;SDS011;3549;42.162;24.726;2023-08-17T16:02:39;8.25;;;6.20;;
7017;SDS011;3549;42.162;24.726;2023-08-17T16:05:05;9.55;;;6.30;;
7017;SDS011;3549;42.162;24.726;2023-08-17T16:07:30;7.75;;;5.85;;
7017;SDS011;3549;42.162;24.726;2023-08-17T16:09:56;8.82;;;6.10;;
7017;SDS011;3549;42.162;24.726;2023-08-17T16:12:21;7.68;;;6.07;;
7017;SDS011;3549;42.162;24.726;2023-08-17T16:14:46;7.85;;;6.30;;
7017;SDS011;3549;42.162;24.726;2023-08-17T16:17:12;8.70;;;6.25;;
7017;SDS011;3549;42.162;24.726;2023-08-17T16:19:37;8.80;;;6.57;;
7017;SDS011;3549;42.162;24.726;2023-08-17T16:22:03;10.35;;;6.80;;
7017;SDS011;3549;42.162;24.726;2023-08-17T16:24:28;9.70;;;6.90;;
7017;SDS011;3549;42.162;24.726;2023-08-17T16:26:54;12.70;;;7.57;;
7017;SDS011;3549;42.162;24.726;2023-08-17T16:29:20;9.32;;;7.30;;
7017;SDS011;3549;42.162;24.726;2023-08-17T16:31:45;14.93;;;7.57;;
7017;SDS011;3549;42.162;24.726;2023-08-17T16:34:24;11.25;;;7.50;;
7017;SDS011;3549;42.162;24.726;2023-08-17T16:36:50;9.88;;;8.27;;
7017;SDS011;3549;42.162;24.726;2023-08-17T16:39:15;13.38;;;8.35;;
7017;SDS011;3549;42.162;24.726;2023-08-17T16:41:41;12.20;;;8.40;;
7017;SDS011;3549;42.162;24.726;2023-08-17T16:44:06;16.67;;;8.15;;
7017;SDS011;3549;42.162;24.726;2023-08-17T16:46:31;15.13;;;9.05;;
7017;SDS011;3549;42.162;24.726;2023-08-17T16:48:57;11.35;;;8.18;;
7017;SDS011;3549;42.162;24.726;2023-08-17T16:51:22;13.50;;;8.07;;
7017;SDS011;3549;42.162;24.726;2023-08-17T16:53:47;14.63;;;7.95;;
7017;SDS011;3549;42.162;24.726;2023-08-17T16:56:14;10.93;;;7.05;;
7017;SDS011;3549;42.162;24.726;2023-08-17T16:58:41;8.68;;;6.88;;
7017;SDS011;3549;42.162;24.726;2023-08-17T17:01:06;7.72;;;6.72;;
7017;SDS011;3549;42.162;24.726;2023-08-17T17:03:32;15.70;;;6.88;;
7017;SDS011;3549;42.162;24.726;2023-08-17T17:05:57;10.45;;;6.95;;
7017;SDS011;3549;42.162;24.726;2023-08-17T17:08:22;9.57;;;6.95;;
7017;SDS011;3549;42.162;24.726;2023-08-17T17:10:48;9.70;;;7.30;;
7017;SDS011;3549;42.162;24.726;2023-08-17T17:13:13;10.65;;;7.72;;
7017;SDS011;3549;42.162;24.726;2023-08-17T17:15:38;9.73;;;7.07;;
7017;SDS011;3549;42.162;24.726;2023-08-17T17:18:04;15.93;;;7.82;;
7017;SDS011;3549;42.162;24.726;2023-08-17T17:20:29;8.60;;;7.05;;
7017;SDS011;3549;42.162;24.726;2023-08-17T17:22:56;10.52;;;6.93;;
7017;SDS011;3549;42.162;24.726;2023-08-17T17:25:21;12.65;;;6.75;;
7017;SDS011;3549;42.162;24.726;2023-08-17T17:27:47;10.60;;;6.40;;
7017;SDS011;3549;42.162;24.726;2023-08-17T17:30:12;10.75;;;6.20;;
7017;SDS011;3549;42.162;24.726;2023-08-17T17:32:38;10.15;;;6.63;;
7017;SDS011;3549;42.162;24.726;2023-08-17T17:35:04;10.95;;;6.70;;
7017;SDS011;3549;42.162;24.726;2023-08-17T17:37:30;10.65;;;6.97;;
7017;SDS011;3549;42.162;24.726;2023-08-17T17:39:56;9.20;;;6.72;;
7017;SDS011;3549;42.162;24.726;2023-08-17T17:42:21;7.90;;;7.10;;
7017;SDS011;3549;42.162;24.726;2023-08-17T17:44:47;15.20;;;7.57;;
7017;SDS011;3549;42.162;24.726;2023-08-17T17:47:12;12.30;;;7.90;;
7017;SDS011;3549;42.162;24.726;2023-08-17T17:49:37;13.05;;;7.15;;
7017;SDS011;3549;42.162;24.726;2023-08-17T17:52:03;10.73;;;7.13;;
7017;SDS011;3549;42.162;24.726;2023-08-17T17:54:28;10.32;;;7.07;;
7017;SDS011;3549;42.162;24.726;2023-08-17T17:56:54;13.93;;;6.95;;
7017;SDS011;3549;42.162;24.726;2023-08-17T17:59:19;10.77;;;7.68;;
7017;SDS011;3549;42.162;24.726;2023-08-17T18:01:45;14.10;;;7.47;;
7017;SDS011;3549;42.162;24.726;2023-08-17T18:04:10;11.05;;;7.80;;
7017;SDS011;3549;42.162;24.726;2023-08-17T18:06:35;15.95;;;7.75;;
7017;SDS011;3549;42.162;24.726;2023-08-17T18:09:01;15.05;;;8.02;;
7017;SDS011;3549;42.162;24.726;2023-08-17T18:11:29;10.10;;;7.25;;
7017;SDS011;3549;42.162;24.726;2023-08-17T18:13:55;12.30;;;7.53;;
7017;SDS011;3549;42.162;24.726;2023-08-17T18:16:21;9.55;;;7.05;;
7017;SDS011;3549;42.162;24.726;2023-08-17T18:18:46;13.30;;;6.45;;
7017;SDS011;3549;42.162;24.726;2023-08-17T18:21:12;12.15;;;7.30;;
7017;SDS011;3549;42.162;24.726;2023-08-17T18:23:37;9.90;;;7.18;;
7017;SDS011;3549;42.162;24.726;2023-08-17T18:26:02;11.07;;;7.22;;
7017;SDS011;3549;42.162;24.726;2023-08-17T18:28:28;7.80;;;6.88;;
7017;SDS011;3549;42.162;24.726;2023-08-17T18:30:54;8.75;;;6.70;;
7017;SDS011;3549;42.162;24.726;2023-08-17T18:33:20;10.18;;;6.82;;
7017;SDS011;3549;42.162;24.726;2023-08-17T18:35:47;9.63;;;6.53;;
7017;SDS011;3549;42.162;24.726;2023-08-17T18:38:13;8.40;;;6.95;;
7017;SDS011;3549;42.162;24.726;2023-08-17T18:40:38;8.18;;;6.90;;
7017;SDS011;3549;42.162;24.726;2023-08-17T18:43:04;13.38;;;7.10;;
7017;SDS011;3549;42.162;24.726;2023-08-17T18:45:29;8.13;;;7.03;;
7017;SDS011;3549;42.162;24.726;2023-08-17T18:47:54;9.70;;;6.97;;
7017;SDS011;3549;42.162;24.726;2023-08-17T18:50:20;11.13;;;7.65;;
7017;SDS011;3549;42.162;24.726;2023-08-17T18:52:45;11.30;;;7.43;;
7017;SDS011;3549;42.162;24.726;2023-08-17T18:55:11;12.27;;;6.90;;
7017;SDS011;3549;42.162;24.726;2023-08-17T18:57:37;9.32;;;7.10;;
7017;SDS011;3549;42.162;24.726;2023-08-17T19:00:04;9.95;;;6.97;;
7017;SDS011;3549;42.162;24.726;2023-08-17T19:02:30;10.95;;;6.75;;
7017;SDS011;3549;42.162;24.726;2023-08-17T19:04:56;7.65;;;6.85;;
7017;SDS011;3549;42.162;24.726;2023-08-17T19:07:23;8.50;;;6.80;;
7017;SDS011;3549;42.162;24.726;2023-08-17T19:09:51;9.07;;;6.28;;
7017;SDS011;3549;42.162;24.726;2023-08-17T19:12:16;9.18;;;6.63;;
7017;SDS011;3549;42.162;24.726;2023-08-17T19:14:42;9.02;;;6.10;;
7017;SDS011;3549;42.162;24.726;2023-08-17T19:17:08;8.43;;;6.10;;
7017;SDS011;3549;42.162;24.726;2023-08-17T19:19:34;8.95;;;6.32;;
7017;SDS011;3549;42.162;24.726;2023-08-17T19:21:59;8.23;;;5.80;;
7017;SDS011;3549;42.162;24.726;2023-08-17T19:24:24;9.18;;;5.90;;
7017;SDS011;3549;42.162;24.726;2023-08-17T19:26:50;9.45;;;6.28;;
7017;SDS011;3549;42.162;24.726;2023-08-17T19:29:15;9.32;;;6.10;;
7017;SDS011;3549;42.162;24.726;2023-08-17T19:31:41;8.00;;;6.00;;
7017;SDS011;3549;42.162;24.726;2023-08-17T19:34:06;7.85;;;5.97;;
7017;SDS011;3549;42.162;24.726;2023-08-17T19:36:32;8.70;;;6.13;;
7017;SDS011;3549;42.162;24.726;2023-08-17T19:38:58;9.05;;;6.15;;
7017;SDS011;3549;42.162;24.726;2023-08-17T19:41:23;9.18;;;5.90;;
7017;SDS011;3549;42.162;24.726;2023-08-17T19:43:49;8.75;;;6.00;;
7017;SDS011;3549;42.162;24.726;2023-08-17T19:46:14;7.55;;;5.88;;
7017;SDS011;3549;42.162;24.726;2023-08-17T19:48:39;8.60;;;6.15;;
7017;SDS011;3549;42.162;24.726;2023-08-17T19:51:05;10.90;;;6.88;;
7017;SDS011;3549;42.162;24.726;2023-08-17T19:53:31;7.75;;;5.97;;
7017;SDS011;3549;42.162;24.726;2023-08-17T19:55:57;10.02;;;6.80;;
7017;SDS011;3549;42.162;24.726;2023-08-17T19:58:23;12.77;;;8.93;;
7017;SDS011;3549;42.162;24.726;2023-08-17T20:00:48;7.65;;;5.85;;
7017;SDS011;3549;42.162;24.726;2023-08-17T20:03:14;8.60;;;5.95;;
7017;SDS011;3549;42.162;24.726;2023-08-17T20:05:39;10.40;;;5.45;;
7017;SDS011;3549;42.162;24.726;2023-08-17T20:08:05;7.35;;;5.78;;
7017;SDS011;3549;42.162;24.726;2023-08-17T20:10:31;10.43;;;6.30;;
7017;SDS011;3549;42.162;24.726;2023-08-17T20:12:56;10.30;;;6.10;;
7017;SDS011;3549;42.162;24.726;2023-08-17T20:15:22;9.52;;;5.88;;
7017;SDS011;3549;42.162;24.726;2023-08-17T20:17:47;8.73;;;5.88;;
7017;SDS011;3549;42.162;24.726;2023-08-17T20:20:13;7.00;;;5.53;;
7017;SDS011;3549;42.162;24.726;2023-08-17T20:22:40;8.55;;;6.03;;
7017;SDS011;3549;42.162;24.726;2023-08-17T20:25:07;7.10;;;5.97;;
7017;SDS011;3549;42.162;24.726;2023-08-17T20:27:33;8.85;;;6.68;;
7017;SDS011;3549;42.162;24.726;2023-08-17T20:29:58;9.07;;;6.28;;